sensor_id;sensor_type;location;lat;lon;timestamp;pressure;altitude;pressure_sealevel;temperature;humidity
49030;BME280;43337;52.070;4.508;2022-07-23T00:00:00;102064.03;;;16.03;70.32
49030;BME280;43337;52.070;4.508;2022-07-23T00:02:25;102077.75;;;16.13;70.65
49030;BME280;43337;52.070;4.508;2022-07-23T00:04:50;102093.25;;;16.22;70.89
49030;BME280;43337;52.070;4.508;2022-07-23T00:07:16;102090.59;;;16.22;71.00
49030;BME280;43337;52.070;4.508;2022-07-23T00:09:44;102082.34;;;16.28;70.97
49030;BME280;43337;52.070;4.508;2022-07-23T00:12:10;102086.00;;;16.25;71.13
49030;BME280;43337;52.070;4.508;2022-07-23T00:14:35;102081.50;;;16.27;70.92
49030;BME280;43337;52.070;4.508;2022-07-23T00:17:01;102040.56;;;16.13;70.97
49030;BME280;43337;52.070;4.508;2022-07-23T00:19:26;102053.63;;;16.36;71.02
49030;BME280;43337;52.070;4.508;2022-07-23T00:21:51;102061.81;;;16.31;71.36
49030;BME280;43337;52.070;4.508;2022-07-23T00:24:17;102044.50;;;16.23;70.79
49030;BME280;43337;52.070;4.508;2022-07-23T00:26:42;102061.59;;;16.36;70.85
49030;BME280;43337;52.070;4.508;2022-07-23T00:29:08;102053.94;;;16.30;70.66
49030;BME280;43337;52.070;4.508;2022-07-23T00:31:33;102017.00;;;16.05;70.60
49030;BME280;43337;52.070;4.508;2022-07-23T00:33:58;102021.38;;;16.06;70.62
49030;BME280;43337;52.070;4.508;2022-07-23T00:36:26;102057.66;;;16.26;70.46
49030;BME280;43337;52.070;4.508;2022-07-23T00:38:52;102036.22;;;16.10;70.59
49030;BME280;43337;52.070;4.508;2022-07-23T00:41:18;102057.94;;;16.20;70.54
49030;BME280;43337;52.070;4.508;2022-07-23T00:43:43;102043.22;;;16.13;70.77
49030;BME280;43337;52.070;4.508;2022-07-23T00:46:09;102061.69;;;16.16;70.88
49030;BME280;43337;52.070;4.508;2022-07-23T00:48:34;102054.28;;;16.03;70.80
49030;BME280;43337;52.070;4.508;2022-07-23T00:51:00;102057.56;;;16.08;71.05
49030;BME280;43337;52.070;4.508;2022-07-23T00:53:25;102060.22;;;16.08;70.92
49030;BME280;43337;52.070;4.508;2022-07-23T00:55:51;102050.59;;;16.06;70.79
49030;BME280;43337;52.070;4.508;2022-07-23T00:58:17;102043.78;;;16.00;70.73
49030;BME280;43337;52.070;4.508;2022-07-23T01:00:42;102049.09;;;16.00;70.81
49030;BME280;43337;52.070;4.508;2022-07-23T01:03:08;102042.47;;;15.90;70.64
49030;BME280;43337;52.070;4.508;2022-07-23T01:05:33;102021.56;;;15.82;70.74
49030;BME280;43337;52.070;4.508;2022-07-23T01:07:59;102039.81;;;15.90;70.81
49030;BME280;43337;52.070;4.508;2022-07-23T01:10:25;102039.75;;;15.92;70.93
49030;BME280;43337;52.070;4.508;2022-07-23T01:13:01;102034.81;;;15.84;70.94
49030;BME280;43337;52.070;4.508;2022-07-23T01:15:27;102027.22;;;15.75;71.12
49030;BME280;43337;52.070;4.508;2022-07-23T01:17:53;102029.75;;;15.78;71.04
49030;BME280;43337;52.070;4.508;2022-07-23T01:20:18;102034.25;;;15.76;71.20
49030;BME280;43337;52.070;4.508;2022-07-23T01:22:44;102049.84;;;15.83;71.46
49030;BME280;43337;52.070;4.508;2022-07-23T01:25:10;102007.59;;;15.58;71.06
49030;BME280;43337;52.070;4.508;2022-07-23T01:27:35;102035.06;;;15.78;71.33
49030;BME280;43337;52.070;4.508;2022-07-23T01:30:02;102039.50;;;15.77;71.38
49030;BME280;43337;52.070;4.508;2022-07-23T01:32:28;102047.63;;;15.74;71.57
49030;BME280;43337;52.070;4.508;2022-07-23T01:34:53;102051.25;;;15.72;71.71
49030;BME280;43337;52.070;4.508;2022-07-23T01:37:18;102049.66;;;15.68;71.76
49030;BME280;43337;52.070;4.508;2022-07-23T01:39:44;102015.16;;;15.47;71.92
49030;BME280;43337;52.070;4.508;2022-07-23T01:42:09;102018.03;;;15.43;72.13
49030;BME280;43337;52.070;4.508;2022-07-23T01:44:35;102023.97;;;15.48;72.28
49030;BME280;43337;52.070;4.508;2022-07-23T01:47:00;101998.41;;;15.26;72.30
49030;BME280;43337;52.070;4.508;2022-07-23T01:49:25;102042.31;;;15.54;72.44
49030;BME280;43337;52.070;4.508;2022-07-23T01:51:51;102047.75;;;15.51;72.50
49030;BME280;43337;52.070;4.508;2022-07-23T01:54:28;102048.88;;;15.45;72.74
49030;BME280;43337;52.070;4.508;2022-07-23T01:56:54;102040.38;;;15.37;72.55
49030;BME280;43337;52.070;4.508;2022-07-23T01:59:20;102024.94;;;15.26;72.77
49030;BME280;43337;52.070;4.508;2022-07-23T02:01:46;102017.34;;;15.17;73.00
49030;BME280;43337;52.070;4.508;2022-07-23T02:04:11;102026.16;;;15.18;73.00
49030;BME280;43337;52.070;4.508;2022-07-23T02:06:36;102050.44;;;15.29;73.29
49030;BME280;43337;52.070;4.508;2022-07-23T02:09:02;102028.81;;;15.18;73.28
49030;BME280;43337;52.070;4.508;2022-07-23T02:11:27;102019.47;;;15.09;73.46
49030;BME280;43337;52.070;4.508;2022-07-23T02:13:53;102035.06;;;15.17;73.49
49030;BME280;43337;52.070;4.508;2022-07-23T02:16:18;102021.34;;;15.07;73.75
49030;BME280;43337;52.070;4.508;2022-07-23T02:18:44;102012.81;;;14.99;73.43
49030;BME280;43337;52.070;4.508;2022-07-23T02:21:11;102035.50;;;15.06;74.03
49030;BME280;43337;52.070;4.508;2022-07-23T02:23:36;102025.22;;;14.98;74.08
49030;BME280;43337;52.070;4.508;2022-07-23T02:26:01;102038.03;;;15.09;73.97
49030;BME280;43337;52.070;4.508;2022-07-23T02:28:27;102034.78;;;15.02;74.10
49030;BME280;43337;52.070;4.508;2022-07-23T02:30:52;102020.84;;;14.97;74.15
49030;BME280;43337;52.070;4.508;2022-07-23T02:33:19;102042.69;;;15.04;74.30
49030;BME280;43337;52.070;4.508;2022-07-23T02:35:44;102031.34;;;15.00;74.46
49030;BME280;43337;52.070;4.508;2022-07-23T02:38:10;102006.50;;;14.81;74.58
49030;BME280;43337;52.070;4.508;2022-07-23T02:40:35;102024.63;;;14.92;74.46
49030;BME280;43337;52.070;4.508;2022-07-23T02:43:00;102028.94;;;14.94;74.54
49030;BME280;43337;52.070;4.508;2022-07-23T02:45:26;102034.91;;;14.99;74.63
49030;BME280;43337;52.070;4.508;2022-07-23T02:47:51;102052.28;;;15.06;74.52
49030;BME280;43337;52.070;4.508;2022-07-23T02:50:17;102041.88;;;15.02;74.62
49030;BME280;43337;52.070;4.508;2022-07-23T02:52:42;102032.28;;;14.99;74.71
49030;BME280;43337;52.070;4.508;2022-07-23T02:55:08;102052.22;;;15.08;74.72
49030;BME280;43337;52.070;4.508;2022-07-23T02:57:33;102047.78;;;15.08;74.88
49030;BME280;43337;52.070;4.508;2022-07-23T02:59:59;102043.41;;;15.07;74.94
49030;BME280;43337;52.070;4.508;2022-07-23T03:02:24;102033.00;;;15.03;75.05
49030;BME280;43337;52.070;4.508;2022-07-23T03:04:50;102011.53;;;14.87;75.15
49030;BME280;43337;52.070;4.508;2022-07-23T03:07:16;102027.13;;;14.95;75.13
49030;BME280;43337;52.070;4.508;2022-07-23T03:09:42;102039.09;;;15.05;75.25
49030;BME280;43337;52.070;4.508;2022-07-23T03:12:07;102034.66;;;15.05;74.92
49030;BME280;43337;52.070;4.508;2022-07-23T03:14:33;102022.56;;;14.98;74.59
49030;BME280;43337;52.070;4.508;2022-07-23T03:16:58;102041.81;;;15.03;74.71
49030;BME280;43337;52.070;4.508;2022-07-23T03:19:25;102054.03;;;15.07;74.46
49030;BME280;43337;52.070;4.508;2022-07-23T03:21:50;102048.72;;;15.07;74.55
49030;BME280;43337;52.070;4.508;2022-07-23T03:24:15;102050.63;;;15.04;74.64
49030;BME280;43337;52.070;4.508;2022-07-23T03:26:43;101998.06;;;14.71;74.59
49030;BME280;43337;52.070;4.508;2022-07-23T03:29:09;102038.69;;;14.94;74.55
49030;BME280;43337;52.070;4.508;2022-07-23T03:31:34;102038.78;;;14.90;74.89
49030;BME280;43337;52.070;4.508;2022-07-23T03:34:00;102008.78;;;14.68;74.64
49030;BME280;43337;52.070;4.508;2022-07-23T03:36:26;102011.44;;;14.68;74.81
49030;BME280;43337;52.070;4.508;2022-07-23T03:38:51;102027.75;;;14.79;74.74
49030;BME280;43337;52.070;4.508;2022-07-23T03:41:17;102041.91;;;14.80;74.58
49030;BME280;43337;52.070;4.508;2022-07-23T03:43:43;102049.78;;;14.81;74.66
49030;BME280;43337;52.070;4.508;2022-07-23T03:46:08;102045.66;;;14.74;74.69
49030;BME280;43337;52.070;4.508;2022-07-23T03:48:35;102041.59;;;14.65;74.63
49030;BME280;43337;52.070;4.508;2022-07-23T03:51:00;102053.69;;;14.73;74.83
49030;BME280;43337;52.070;4.508;2022-07-23T03:53:26;102054.59;;;14.72;74.84
49030;BME280;43337;52.070;4.508;2022-07-23T03:55:51;102059.22;;;14.67;74.87
49030;BME280;43337;52.070;4.508;2022-07-23T03:58:16;102029.13;;;14.46;74.71
49030;BME280;43337;52.070;4.508;2022-07-23T04:00:42;102036.19;;;14.45;74.96
49030;BME280;43337;52.070;4.508;2022-07-23T04:03:07;102037.09;;;14.44;75.00
49030;BME280;43337;52.070;4.508;2022-07-23T04:05:32;102057.19;;;14.51;75.45
49030;BME280;43337;52.070;4.508;2022-07-23T04:07:58;102032.22;;;14.33;75.33
49030;BME280;43337;52.070;4.508;2022-07-23T04:10:23;102060.75;;;14.50;75.37
49030;BME280;43337;52.070;4.508;2022-07-23T04:12:49;102079.81;;;14.60;75.46
49030;BME280;43337;52.070;4.508;2022-07-23T04:15:14;102072.78;;;14.59;75.40
49030;BME280;43337;52.070;4.508;2022-07-23T04:17:40;102069.28;;;14.58;75.50
49030;BME280;43337;52.070;4.508;2022-07-23T04:20:05;102072.78;;;14.59;75.67
49030;BME280;43337;52.070;4.508;2022-07-23T04:22:31;102052.06;;;14.45;75.69
49030;BME280;43337;52.070;4.508;2022-07-23T04:24:56;102044.00;;;14.48;75.80
49030;BME280;43337;52.070;4.508;2022-07-23T04:27:22;102043.22;;;14.46;75.85
49030;BME280;43337;52.070;4.508;2022-07-23T04:29:47;102076.09;;;14.64;75.87
49030;BME280;43337;52.070;4.508;2022-07-23T04:32:12;102049.38;;;14.47;75.93
49030;BME280;43337;52.070;4.508;2022-07-23T04:34:38;102031.06;;;14.40;76.11
49030;BME280;43337;52.070;4.508;2022-07-23T04:37:03;102077.69;;;14.68;76.21
49030;BME280;43337;52.070;4.508;2022-07-23T04:39:28;102077.59;;;14.71;76.38
49030;BME280;43337;52.070;4.508;2022-07-23T04:41:54;102072.28;;;14.71;76.44
49030;BME280;43337;52.070;4.508;2022-07-23T04:44:19;102074.75;;;14.76;76.39
49030;BME280;43337;52.070;4.508;2022-07-23T04:46:45;102060.03;;;14.69;76.55
49030;BME280;43337;52.070;4.508;2022-07-23T04:49:10;102067.81;;;14.73;76.58
49030;BME280;43337;52.070;4.508;2022-07-23T04:51:35;102054.84;;;14.65;76.41
49030;BME280;43337;52.070;4.508;2022-07-23T04:54:01;102057.53;;;14.64;76.47
49030;BME280;43337;52.070;4.508;2022-07-23T04:56:26;102073.16;;;14.72;76.40
49030;BME280;43337;52.070;4.508;2022-07-23T04:58:52;102074.69;;;14.77;76.62
49030;BME280;43337;52.070;4.508;2022-07-23T05:01:17;102072.16;;;14.74;76.71
49030;BME280;43337;52.070;4.508;2022-07-23T05:03:42;102056.56;;;14.67;76.98
49030;BME280;43337;52.070;4.508;2022-07-23T05:06:08;102025.44;;;14.50;76.73
49030;BME280;43337;52.070;4.508;2022-07-23T05:08:33;102080.94;;;14.76;76.93
49030;BME280;43337;52.070;4.508;2022-07-23T05:10:59;102058.13;;;14.72;76.83
49030;BME280;43337;52.070;4.508;2022-07-23T05:13:24;102064.28;;;14.73;76.97
49030;BME280;43337;52.070;4.508;2022-07-23T05:15:50;102081.59;;;14.81;76.94
49030;BME280;43337;52.070;4.508;2022-07-23T05:18:15;102078.03;;;14.82;77.04
49030;BME280;43337;52.070;4.508;2022-07-23T05:20:41;102050.28;;;14.69;77.09
49030;BME280;43337;52.070;4.508;2022-07-23T05:23:07;102077.84;;;14.87;77.28
49030;BME280;43337;52.070;4.508;2022-07-23T05:25:34;102050.28;;;14.69;77.14
49030;BME280;43337;52.070;4.508;2022-07-23T05:27:59;102075.13;;;14.88;77.44
49030;BME280;43337;52.070;4.508;2022-07-23T05:30:24;102074.81;;;14.96;77.38
49030;BME280;43337;52.070;4.508;2022-07-23T05:32:50;102062.66;;;14.90;77.50
49030;BME280;43337;52.070;4.508;2022-07-23T05:35:16;102088.34;;;15.10;77.41
49030;BME280;43337;52.070;4.508;2022-07-23T05:37:41;102083.88;;;15.12;77.48
49030;BME280;43337;52.070;4.508;2022-07-23T05:40:08;102093.84;;;15.28;77.50
49030;BME280;43337;52.070;4.508;2022-07-23T05:42:35;102087.47;;;15.32;77.29
49030;BME280;43337;52.070;4.508;2022-07-23T05:45:01;102077.66;;;15.34;77.27
49030;BME280;43337;52.070;4.508;2022-07-23T05:47:26;102085.22;;;15.43;77.14
49030;BME280;43337;52.070;4.508;2022-07-23T05:49:51;102077.88;;;15.50;76.88
49030;BME280;43337;52.070;4.508;2022-07-23T05:52:17;102052.53;;;15.43;76.72
49030;BME280;43337;52.070;4.508;2022-07-23T05:54:42;102091.16;;;15.70;76.51
49030;BME280;43337;52.070;4.508;2022-07-23T05:57:08;102104.72;;;15.84;76.05
49030;BME280;43337;52.070;4.508;2022-07-23T05:59:35;102075.03;;;15.75;75.81
49030;BME280;43337;52.070;4.508;2022-07-23T06:02:05;102086.84;;;15.88;75.34
49030;BME280;43337;52.070;4.508;2022-07-23T06:04:30;102108.78;;;16.12;75.39
49030;BME280;43337;52.070;4.508;2022-07-23T06:06:56;102070.22;;;16.03;75.04
49030;BME280;43337;52.070;4.508;2022-07-23T06:09:21;102076.69;;;16.17;74.60
49030;BME280;43337;52.070;4.508;2022-07-23T06:11:46;102103.03;;;16.40;74.05
49030;BME280;43337;52.070;4.508;2022-07-23T06:14:12;102089.03;;;16.36;73.75
49030;BME280;43337;52.070;4.508;2022-07-23T06:16:37;102107.66;;;16.55;73.43
49030;BME280;43337;52.070;4.508;2022-07-23T06:19:05;102100.25;;;16.62;73.13
49030;BME280;43337;52.070;4.508;2022-07-23T06:21:30;102102.53;;;16.70;72.80
49030;BME280;43337;52.070;4.508;2022-07-23T06:23:56;102103.88;;;16.80;72.48
49030;BME280;43337;52.070;4.508;2022-07-23T06:26:21;102104.34;;;16.88;72.10
49030;BME280;43337;52.070;4.508;2022-07-23T06:28:47;102075.22;;;16.85;71.99
49030;BME280;43337;52.070;4.508;2022-07-23T06:31:12;102091.59;;;16.95;71.61
49030;BME280;43337;52.070;4.508;2022-07-23T06:33:37;102093.50;;;17.10;71.54
49030;BME280;43337;52.070;4.508;2022-07-23T06:36:03;102095.78;;;17.18;71.22
49030;BME280;43337;52.070;4.508;2022-07-23T06:38:28;102092.56;;;17.28;70.95
49030;BME280;43337;52.070;4.508;2022-07-23T06:40:54;102101.13;;;17.35;70.19
49030;BME280;43337;52.070;4.508;2022-07-23T06:43:19;102088.53;;;17.39;70.52
49030;BME280;43337;52.070;4.508;2022-07-23T06:45:47;102090.84;;;17.45;70.15
49030;BME280;43337;52.070;4.508;2022-07-23T06:48:12;102099.09;;;17.57;70.16
49030;BME280;43337;52.070;4.508;2022-07-23T06:50:38;102089.28;;;17.58;70.03
49030;BME280;43337;52.070;4.508;2022-07-23T06:53:03;102105.28;;;17.75;69.60
49030;BME280;43337;52.070;4.508;2022-07-23T06:55:29;102082.47;;;17.70;69.71
49030;BME280;43337;52.070;4.508;2022-07-23T06:57:54;102110.69;;;17.91;69.27
49030;BME280;43337;52.070;4.508;2022-07-23T07:00:19;102101.75;;;17.92;68.90
49030;BME280;43337;52.070;4.508;2022-07-23T07:02:45;102097.88;;;17.98;68.05
49030;BME280;43337;52.070;4.508;2022-07-23T07:05:10;102117.34;;;18.16;68.08
49030;BME280;43337;52.070;4.508;2022-07-23T07:07:36;102102.38;;;18.13;67.95
49030;BME280;43337;52.070;4.508;2022-07-23T07:10:03;102104.47;;;18.24;67.98
49030;BME280;43337;52.070;4.508;2022-07-23T07:12:28;102099.69;;;18.30;67.78
49030;BME280;43337;52.070;4.508;2022-07-23T07:14:54;102105.03;;;18.46;67.37
49030;BME280;43337;52.070;4.508;2022-07-23T07:17:20;102120.22;;;18.60;67.18
49030;BME280;43337;52.070;4.508;2022-07-23T07:19:45;102116.47;;;18.64;67.17
49030;BME280;43337;52.070;4.508;2022-07-23T07:22:11;102122.00;;;18.77;66.87
49030;BME280;43337;52.070;4.508;2022-07-23T07:24:36;102100.94;;;18.72;66.68
49030;BME280;43337;52.070;4.508;2022-07-23T07:27:01;102130.88;;;18.93;66.50
49030;BME280;43337;52.070;4.508;2022-07-23T07:29:27;102109.59;;;18.92;66.22
49030;BME280;43337;52.070;4.508;2022-07-23T07:31:53;102098.41;;;18.85;65.91
49030;BME280;43337;52.070;4.508;2022-07-23T07:34:18;102122.84;;;19.09;66.05
49030;BME280;43337;52.070;4.508;2022-07-23T07:36:44;102075.94;;;18.89;66.22
49030;BME280;43337;52.070;4.508;2022-07-23T07:39:09;102073.69;;;18.97;66.38
49030;BME280;43337;52.070;4.508;2022-07-23T07:41:35;102127.63;;;19.34;65.79
49030;BME280;43337;52.070;4.508;2022-07-23T07:44:01;102137.75;;;19.43;65.87
49030;BME280;43337;52.070;4.508;2022-07-23T07:46:26;102111.59;;;19.34;65.50
49030;BME280;43337;52.070;4.508;2022-07-23T07:48:53;102141.16;;;19.61;65.15
49030;BME280;43337;52.070;4.508;2022-07-23T07:51:18;102109.91;;;19.47;65.18
49030;BME280;43337;52.070;4.508;2022-07-23T07:53:43;102115.31;;;19.62;64.97
49030;BME280;43337;52.070;4.508;2022-07-23T07:56:09;102136.16;;;19.85;64.85
49030;BME280;43337;52.070;4.508;2022-07-23T07:58:34;102139.50;;;19.89;64.58
49030;BME280;43337;52.070;4.508;2022-07-23T08:01:00;102116.03;;;19.80;64.13
49030;BME280;43337;52.070;4.508;2022-07-23T08:03:26;102148.97;;;20.09;63.54
49030;BME280;43337;52.070;4.508;2022-07-23T08:05:51;102146.13;;;20.12;62.66
49030;BME280;43337;52.070;4.508;2022-07-23T08:08:16;102140.28;;;20.05;62.68
49030;BME280;43337;52.070;4.508;2022-07-23T08:10:42;102133.22;;;20.04;62.84
49030;BME280;43337;52.070;4.508;2022-07-23T08:13:12;102152.88;;;20.17;62.60
49030;BME280;43337;52.070;4.508;2022-07-23T08:15:40;102129.28;;;20.10;62.52
49030;BME280;43337;52.070;4.508;2022-07-23T08:18:05;102125.03;;;20.07;62.56
49030;BME280;43337;52.070;4.508;2022-07-23T08:20:31;102128.94;;;20.16;62.37
49030;BME280;43337;52.070;4.508;2022-07-23T08:23:04;102163.91;;;20.41;62.43
49030;BME280;43337;52.070;4.508;2022-07-23T08:25:33;102158.09;;;20.49;62.08
49030;BME280;43337;52.070;4.508;2022-07-23T08:28:00;102161.88;;;20.59;61.92
49030;BME280;43337;52.070;4.508;2022-07-23T08:30:26;102159.69;;;20.66;61.30
49030;BME280;43337;52.070;4.508;2022-07-23T08:32:56;102126.00;;;20.49;61.15
49030;BME280;43337;52.070;4.508;2022-07-23T08:35:25;102149.34;;;20.74;60.70
49030;BME280;43337;52.070;4.508;2022-07-23T08:37:51;102137.47;;;20.78;60.44
49030;BME280;43337;52.070;4.508;2022-07-23T08:40:17;102150.41;;;20.98;60.01
49030;BME280;43337;52.070;4.508;2022-07-23T08:42:42;102129.41;;;20.92;60.18
49030;BME280;43337;52.070;4.508;2022-07-23T08:45:08;102146.50;;;21.04;59.57
49030;BME280;43337;52.070;4.508;2022-07-23T08:47:36;102138.34;;;21.06;59.64
49030;BME280;43337;52.070;4.508;2022-07-23T08:50:02;102141.47;;;21.12;59.16
49030;BME280;43337;52.070;4.508;2022-07-23T08:52:28;102140.44;;;21.15;59.30
49030;BME280;43337;52.070;4.508;2022-07-23T08:54:54;102160.44;;;21.36;58.89
49030;BME280;43337;52.070;4.508;2022-07-23T08:57:20;102130.53;;;21.30;59.14
49030;BME280;43337;52.070;4.508;2022-07-23T08:59:45;102119.41;;;21.36;58.62
49030;BME280;43337;52.070;4.508;2022-07-23T09:02:12;102116.41;;;21.40;58.36
49030;BME280;43337;52.070;4.508;2022-07-23T09:04:37;102115.22;;;21.44;58.43
49030;BME280;43337;52.070;4.508;2022-07-23T09:07:03;102133.72;;;21.62;58.44
49030;BME280;43337;52.070;4.508;2022-07-23T09:09:28;102140.19;;;21.72;58.16
49030;BME280;43337;52.070;4.508;2022-07-23T09:12:07;102159.28;;;21.93;57.86
49030;BME280;43337;52.070;4.508;2022-07-23T09:17:09;102157.03;;;22.12;57.27
49030;BME280;43337;52.070;4.508;2022-07-23T09:19:35;102167.75;;;22.25;57.58
49030;BME280;43337;52.070;4.508;2022-07-23T09:22:19;102156.31;;;22.23;56.52
49030;BME280;43337;52.070;4.508;2022-07-23T09:25:05;102168.09;;;22.46;56.51
49030;BME280;43337;52.070;4.508;2022-07-23T09:28:09;102156.56;;;22.57;56.23
49030;BME280;43337;52.070;4.508;2022-07-23T09:30:35;102150.09;;;22.59;56.33
49030;BME280;43337;52.070;4.508;2022-07-23T09:35:50;102158.09;;;22.85;56.22
49030;BME280;43337;52.070;4.508;2022-07-23T09:38:17;102160.16;;;22.81;55.57
49030;BME280;43337;52.070;4.508;2022-07-23T09:40:44;102156.19;;;22.74;55.56
49030;BME280;43337;52.070;4.508;2022-07-23T09:43:10;102140.00;;;22.63;55.90
49030;BME280;43337;52.070;4.508;2022-07-23T09:45:35;102162.72;;;22.83;55.79
49030;BME280;43337;52.070;4.508;2022-07-23T09:48:14;102146.28;;;22.87;55.47
49030;BME280;43337;52.070;4.508;2022-07-23T09:50:41;102164.94;;;23.02;54.99
49030;BME280;43337;52.070;4.508;2022-07-23T09:53:07;102157.72;;;23.02;55.14
49030;BME280;43337;52.070;4.508;2022-07-23T09:55:34;102164.66;;;23.18;54.63
49030;BME280;43337;52.070;4.508;2022-07-23T09:58:07;102154.53;;;23.21;54.44
49030;BME280;43337;52.070;4.508;2022-07-23T10:00:38;102159.97;;;23.32;54.53
49030;BME280;43337;52.070;4.508;2022-07-23T10:03:05;102156.94;;;23.37;54.67
49030;BME280;43337;52.070;4.508;2022-07-23T10:05:32;102171.91;;;23.52;54.05
49030;BME280;43337;52.070;4.508;2022-07-23T10:08:02;102161.91;;;23.66;54.09
49030;BME280;43337;52.070;4.508;2022-07-23T10:10:28;102137.31;;;23.59;54.37
49030;BME280;43337;52.070;4.508;2022-07-23T10:12:56;102170.31;;;23.85;53.06
49030;BME280;43337;52.070;4.508;2022-07-23T10:15:40;102142.53;;;23.73;53.03
49030;BME280;43337;52.070;4.508;2022-07-23T10:18:07;102147.47;;;23.79;52.98
49030;BME280;43337;52.070;4.508;2022-07-23T10:20:32;102154.41;;;23.82;52.58
49030;BME280;43337;52.070;4.508;2022-07-23T10:25:46;102163.84;;;23.87;52.92
49030;BME280;43337;52.070;4.508;2022-07-23T10:28:45;102159.44;;;23.86;52.55
49030;BME280;43337;52.070;4.508;2022-07-23T10:36:50;102153.31;;;23.84;52.55
49030;BME280;43337;52.070;4.508;2022-07-23T10:41:52;102141.59;;;24.08;52.43
49030;BME280;43337;52.070;4.508;2022-07-23T10:44:21;102162.16;;;24.31;52.61
49030;BME280;43337;52.070;4.508;2022-07-23T10:46:59;102159.84;;;24.38;52.10
49030;BME280;43337;52.070;4.508;2022-07-23T10:49:29;102158.75;;;24.29;52.15
49030;BME280;43337;52.070;4.508;2022-07-23T10:52:21;102121.91;;;23.96;51.87
49030;BME280;43337;52.070;4.508;2022-07-23T10:54:56;102150.31;;;24.11;52.31
49030;BME280;43337;52.070;4.508;2022-07-23T10:57:48;102144.78;;;24.13;52.46
49030;BME280;43337;52.070;4.508;2022-07-23T11:00:25;102143.81;;;24.25;52.49
49030;BME280;43337;52.070;4.508;2022-07-23T11:02:59;102105.03;;;24.17;51.76
49030;BME280;43337;52.070;4.508;2022-07-23T11:05:26;102152.41;;;24.53;52.06
49030;BME280;43337;52.070;4.508;2022-07-23T11:32:01;102141.03;;;25.36;50.27
49030;BME280;43337;52.070;4.508;2022-07-23T11:34:34;102138.75;;;25.31;49.95
49030;BME280;43337;52.070;4.508;2022-07-23T11:37:04;102120.81;;;25.09;49.85
49030;BME280;43337;52.070;4.508;2022-07-23T11:39:30;102136.50;;;25.04;49.50
49030;BME280;43337;52.070;4.508;2022-07-23T11:41:57;102131.31;;;24.80;49.48
49030;BME280;43337;52.070;4.508;2022-07-23T11:44:30;102144.41;;;24.74;50.06
49030;BME280;43337;52.070;4.508;2022-07-23T11:47:10;102096.75;;;24.42;50.46
49030;BME280;43337;52.070;4.508;2022-07-23T11:49:36;102129.13;;;24.52;49.92
49030;BME280;43337;52.070;4.508;2022-07-23T11:52:08;102135.50;;;24.62;49.84
49030;BME280;43337;52.070;4.508;2022-07-23T11:54:36;102129.34;;;24.71;49.82
49030;BME280;43337;52.070;4.508;2022-07-23T11:57:03;102108.53;;;24.73;50.04
49030;BME280;43337;52.070;4.508;2022-07-23T11:59:32;102110.19;;;24.97;50.06
49030;BME280;43337;52.070;4.508;2022-07-23T12:01:58;102116.63;;;25.17;50.12
49030;BME280;43337;52.070;4.508;2022-07-23T12:04:41;102112.19;;;25.27;49.14
49030;BME280;43337;52.070;4.508;2022-07-23T12:07:45;102114.63;;;25.30;49.30
49030;BME280;43337;52.070;4.508;2022-07-23T12:10:41;102104.50;;;25.22;49.10
49030;BME280;43337;52.070;4.508;2022-07-23T12:13:12;102122.47;;;25.33;48.83
49030;BME280;43337;52.070;4.508;2022-07-23T12:15:41;102093.56;;;25.24;47.74
49030;BME280;43337;52.070;4.508;2022-07-23T12:18:08;102121.06;;;25.39;47.37
49030;BME280;43337;52.070;4.508;2022-07-23T12:20:36;102109.69;;;25.35;47.88
49030;BME280;43337;52.070;4.508;2022-07-23T12:23:04;102120.88;;;25.51;48.00
49030;BME280;43337;52.070;4.508;2022-07-23T12:25:32;102105.16;;;25.56;47.23
49030;BME280;43337;52.070;4.508;2022-07-23T12:28:05;102119.72;;;25.75;47.75
49030;BME280;43337;52.070;4.508;2022-07-23T12:30:34;102091.06;;;25.74;47.98
49030;BME280;43337;52.070;4.508;2022-07-23T12:33:03;102067.50;;;25.76;46.94
49030;BME280;43337;52.070;4.508;2022-07-23T12:35:40;102120.56;;;26.17;45.65
49030;BME280;43337;52.070;4.508;2022-07-23T12:38:12;102113.34;;;26.27;46.96
49030;BME280;43337;52.070;4.508;2022-07-23T12:40:49;102109.81;;;26.37;44.26
49030;BME280;43337;52.070;4.508;2022-07-23T12:45:53;102114.84;;;26.41;43.61
49030;BME280;43337;52.070;4.508;2022-07-23T12:48:32;102097.88;;;26.29;44.06
49030;BME280;43337;52.070;4.508;2022-07-23T12:56:13;102100.34;;;26.42;42.58
49030;BME280;43337;52.070;4.508;2022-07-23T12:59:06;102110.06;;;26.54;43.34
49030;BME280;43337;52.070;4.508;2022-07-23T13:01:44;102097.66;;;26.52;42.84
49030;BME280;43337;52.070;4.508;2022-07-23T13:04:15;102098.81;;;26.49;42.81
49030;BME280;43337;52.070;4.508;2022-07-23T13:06:43;102101.44;;;26.40;42.57
49030;BME280;43337;52.070;4.508;2022-07-23T13:09:14;102099.84;;;26.27;42.69
49030;BME280;43337;52.070;4.508;2022-07-23T13:11:40;102070.06;;;25.98;42.69
49030;BME280;43337;52.070;4.508;2022-07-23T13:14:05;102058.63;;;25.85;42.64
49030;BME280;43337;52.070;4.508;2022-07-23T13:16:31;102072.75;;;25.77;43.60
49030;BME280;43337;52.070;4.508;2022-07-23T13:18:59;102099.84;;;25.87;44.65
49030;BME280;43337;52.070;4.508;2022-07-23T13:21:26;102089.34;;;25.73;45.72
49030;BME280;43337;52.070;4.508;2022-07-23T13:23:52;102093.91;;;25.72;47.08
49030;BME280;43337;52.070;4.508;2022-07-23T13:26:17;102087.13;;;25.78;47.66
49030;BME280;43337;52.070;4.508;2022-07-23T13:28:43;102078.16;;;25.77;48.04
49030;BME280;43337;52.070;4.508;2022-07-23T13:31:08;102096.91;;;26.00;48.14
49030;BME280;43337;52.070;4.508;2022-07-23T13:33:34;102093.34;;;25.99;48.12
49030;BME280;43337;52.070;4.508;2022-07-23T13:35:59;102078.09;;;25.89;48.25
49030;BME280;43337;52.070;4.508;2022-07-23T13:38:25;102089.75;;;25.89;48.57